sensor_id;sensor_type;location;lat;lon;timestamp;P1;durP1;ratioP1;P2;durP2;ratioP2
36797;SDS011;22748;8.426;99.512;2023-09-30T00:00:26;32.25;;;29.10;;
36797;SDS011;22748;8.426;99.512;2023-09-30T00:02:59;32.92;;;29.00;;
36797;SDS011;22748;8.426;99.512;2023-09-30T00:05:29;31.50;;;28.42;;
36797;SDS011;22748;8.426;99.512;2023-09-30T00:08:02;33.85;;;30.55;;
36797;SDS011;22748;8.426;99.512;2023-09-30T00:10:36;32.40;;;28.98;;
36797;SDS011;22748;8.426;99.512;2023-09-30T00:13:07;31.98;;;28.45;;
36797;SDS011;22748;8.426;99.512;2023-09-30T00:15:38;33.65;;;30.20;;
36797;SDS011;22748;8.426;99.512;2023-09-30T00:18:10;34.17;;;30.63;;
36797;SDS011;22748;8.426;99.512;2023-09-30T00:23:16;39.70;;;35.50;;
36797;SDS011;22748;8.426;99.512;2023-09-30T00:25:49;35.85;;;32.15;;
36797;SDS011;22748;8.426;99.512;2023-09-30T00:28:20;31.70;;;28.70;;
36797;SDS011;22748;8.426;99.512;2023-09-30T00:30:50;36.13;;;32.28;;
36797;SDS011;22748;8.426;99.512;2023-09-30T00:33:21;32.30;;;28.83;;
36797;SDS011;22748;8.426;99.512;2023-09-30T00:35:52;33.67;;;30.13;;
36797;SDS011;22748;8.426;99.512;2023-09-30T00:38:23;33.40;;;28.75;;
36797;SDS011;22748;8.426;99.512;2023-09-30T00:43:26;30.17;;;27.08;;
36797;SDS011;22748;8.426;99.512;2023-09-30T00:46:01;28.35;;;25.42;;
36797;SDS011;22748;8.426;99.512;2023-09-30T00:48:34;30.55;;;26.10;;
36797;SDS011;22748;8.426;99.512;2023-09-30T00:51:06;31.05;;;25.60;;
36797;SDS011;22748;8.426;99.512;2023-09-30T00:53:37;27.80;;;25.15;;
36797;SDS011;22748;8.426;99.512;2023-09-30T00:56:11;28.30;;;25.55;;
36797;SDS011;22748;8.426;99.512;2023-09-30T00:58:42;35.38;;;28.33;;
36797;SDS011;22748;8.426;99.512;2023-09-30T01:01:14;30.50;;;27.40;;
36797;SDS011;22748;8.426;99.512;2023-09-30T01:03:45;31.75;;;28.48;;
36797;SDS011;22748;8.426;99.512;2023-09-30T01:06:16;36.35;;;31.00;;
36797;SDS011;22748;8.426;99.512;2023-09-30T01:08:47;31.67;;;28.33;;
36797;SDS011;22748;8.426;99.512;2023-09-30T01:11:30;31.27;;;27.92;;
36797;SDS011;22748;8.426;99.512;2023-09-30T01:14:01;31.25;;;28.08;;
36797;SDS011;22748;8.426;99.512;2023-09-30T01:16:31;29.45;;;26.40;;
36797;SDS011;22748;8.426;99.512;2023-09-30T01:19:02;29.38;;;26.42;;
36797;SDS011;22748;8.426;99.512;2023-09-30T01:21:36;34.10;;;30.42;;
36797;SDS011;22748;8.426;99.512;2023-09-30T01:24:07;29.30;;;26.13;;
36797;SDS011;22748;8.426;99.512;2023-09-30T01:26:43;32.72;;;26.77;;
36797;SDS011;22748;8.426;99.512;2023-09-30T01:29:14;26.83;;;23.90;;
36797;SDS011;22748;8.426;99.512;2023-09-30T01:31:46;25.38;;;22.88;;
36797;SDS011;22748;8.426;99.512;2023-09-30T01:34:16;28.10;;;25.25;;
36797;SDS011;22748;8.426;99.512;2023-09-30T01:36:48;25.98;;;23.35;;
36797;SDS011;22748;8.426;99.512;2023-09-30T01:39:19;29.00;;;26.02;;
36797;SDS011;22748;8.426;99.512;2023-09-30T01:41:49;28.63;;;23.55;;
36797;SDS011;22748;8.426;99.512;2023-09-30T01:44:21;25.98;;;23.30;;
36797;SDS011;22748;8.426;99.512;2023-09-30T01:46:52;29.83;;;26.75;;
36797;SDS011;22748;8.426;99.512;2023-09-30T01:49:23;28.48;;;25.58;;
36797;SDS011;22748;8.426;99.512;2023-09-30T01:54:27;28.38;;;25.17;;
36797;SDS011;22748;8.426;99.512;2023-09-30T01:57:04;31.50;;;28.17;;
36797;SDS011;22748;8.426;99.512;2023-09-30T01:59:35;38.72;;;34.50;;
36797;SDS011;22748;8.426;99.512;2023-09-30T02:02:05;39.45;;;33.03;;
36797;SDS011;22748;8.426;99.512;2023-09-30T02:04:35;37.53;;;33.63;;
36797;SDS011;22748;8.426;99.512;2023-09-30T02:07:09;32.00;;;28.65;;
36797;SDS011;22748;8.426;99.512;2023-09-30T02:09:45;29.08;;;26.08;;
36797;SDS011;22748;8.426;99.512;2023-09-30T02:12:22;31.35;;;27.92;;
36797;SDS011;22748;8.426;99.512;2023-09-30T02:14:59;29.75;;;26.60;;
36797;SDS011;22748;8.426;99.512;2023-09-30T02:17:30;28.33;;;25.30;;
36797;SDS011;22748;8.426;99.512;2023-09-30T02:20:00;29.90;;;26.75;;
36797;SDS011;22748;8.426;99.512;2023-09-30T02:22:36;27.60;;;24.63;;
36797;SDS011;22748;8.426;99.512;2023-09-30T02:25:07;27.98;;;24.92;;
36797;SDS011;22748;8.426;99.512;2023-09-30T02:27:40;30.65;;;24.17;;
36797;SDS011;22748;8.426;99.512;2023-09-30T02:30:22;27.40;;;22.13;;
36797;SDS011;22748;8.426;99.512;2023-09-30T02:33:00;27.05;;;22.42;;
36797;SDS011;22748;8.426;99.512;2023-09-30T02:35:44;28.05;;;23.35;;
36797;SDS011;22748;8.426;99.512;2023-09-30T02:38:35;23.60;;;21.30;;
36797;SDS011;22748;8.426;99.512;2023-09-30T02:41:18;25.15;;;22.48;;
36797;SDS011;22748;8.426;99.512;2023-09-30T02:46:17;21.77;;;19.52;;
36797;SDS011;22748;8.426;99.512;2023-09-30T02:48:48;38.75;;;22.48;;
36797;SDS011;22748;8.426;99.512;2023-09-30T02:51:19;23.33;;;20.77;;
36797;SDS011;22748;8.426;99.512;2023-09-30T02:56:21;23.88;;;20.08;;
36797;SDS011;22748;8.426;99.512;2023-09-30T02:58:52;20.20;;;18.05;;
36797;SDS011;22748;8.426;99.512;2023-09-30T03:01:28;20.75;;;18.63;;
36797;SDS011;22748;8.426;99.512;2023-09-30T03:03:58;19.00;;;17.02;;
36797;SDS011;22748;8.426;99.512;2023-09-30T03:06:34;17.90;;;16.10;;
36797;SDS011;22748;8.426;99.512;2023-09-30T03:12:05;20.13;;;16.23;;
36797;SDS011;22748;8.426;99.512;2023-09-30T03:14:36;19.27;;;16.92;;
36797;SDS011;22748;8.426;99.512;2023-09-30T03:17:14;20.52;;;18.42;;
36797;SDS011;22748;8.426;99.512;2023-09-30T03:19:46;19.17;;;17.38;;
36797;SDS011;22748;8.426;99.512;2023-09-30T03:22:23;20.05;;;16.70;;
36797;SDS011;22748;8.426;99.512;2023-09-30T03:27:47;17.92;;;13.75;;
36797;SDS011;22748;8.426;99.512;2023-09-30T03:30:17;16.98;;;15.27;;
36797;SDS011;22748;8.426;99.512;2023-09-30T03:32:54;18.60;;;16.55;;
36797;SDS011;22748;8.426;99.512;2023-09-30T03:35:43;18.55;;;16.48;;
36797;SDS011;22748;8.426;99.512;2023-09-30T03:38:19;23.80;;;17.33;;
36797;SDS011;22748;8.426;99.512;2023-09-30T03:40:52;18.05;;;16.15;;
36797;SDS011;22748;8.426;99.512;2023-09-30T03:43:24;27.50;;;18.52;;
36797;SDS011;22748;8.426;99.512;2023-09-30T03:45:55;19.05;;;16.83;;
36797;SDS011;22748;8.426;99.512;2023-09-30T03:48:27;17.23;;;14.98;;
36797;SDS011;22748;8.426;99.512;2023-09-30T03:50:58;17.15;;;15.32;;
36797;SDS011;22748;8.426;99.512;2023-09-30T03:53:41;22.55;;;15.75;;
36797;SDS011;22748;8.426;99.512;2023-09-30T03:56:14;16.52;;;14.75;;
36797;SDS011;22748;8.426;99.512;2023-09-30T03:58:46;17.67;;;13.77;;
36797;SDS011;22748;8.426;99.512;2023-09-30T04:01:42;14.10;;;12.68;;
36797;SDS011;22748;8.426;99.512;2023-09-30T04:04:20;12.23;;;10.57;;
36797;SDS011;22748;8.426;99.512;2023-09-30T04:06:50;12.52;;;10.90;;
36797;SDS011;22748;8.426;99.512;2023-09-30T04:09:25;12.32;;;11.15;;
36797;SDS011;22748;8.426;99.512;2023-09-30T04:11:57;11.85;;;10.57;;
36797;SDS011;22748;8.426;99.512;2023-09-30T04:14:37;25.13;;;12.23;;
36797;SDS011;22748;8.426;99.512;2023-09-30T04:17:07;16.35;;;11.30;;
36797;SDS011;22748;8.426;99.512;2023-09-30T04:19:40;17.98;;;11.88;;
36797;SDS011;22748;8.426;99.512;2023-09-30T04:22:17;12.20;;;9.98;;
36797;SDS011;22748;8.426;99.512;2023-09-30T04:24:48;14.88;;;10.70;;
36797;SDS011;22748;8.426;99.512;2023-09-30T04:27:33;11.75;;;10.65;;
36797;SDS011;22748;8.426;99.512;2023-09-30T04:30:11;11.98;;;10.80;;
36797;SDS011;22748;8.426;99.512;2023-09-30T04:32:42;11.40;;;8.68;;
36797;SDS011;22748;8.426;99.512;2023-09-30T04:35:14;15.82;;;9.88;;
36797;SDS011;22748;8.426;99.512;2023-09-30T04:37:45;13.98;;;10.35;;
36797;SDS011;22748;8.426;99.512;2023-09-30T04:40:17;14.50;;;9.80;;
36797;SDS011;22748;8.426;99.512;2023-09-30T04:42:55;10.48;;;8.80;;
36797;SDS011;22748;8.426;99.512;2023-09-30T04:45:30;11.73;;;8.32;;
36797;SDS011;22748;8.426;99.512;2023-09-30T04:48:01;12.05;;;8.38;;
36797;SDS011;22748;8.426;99.512;2023-09-30T04:50:33;11.13;;;7.72;;
36797;SDS011;22748;8.426;99.512;2023-09-30T04:53:05;9.40;;;7.28;;
36797;SDS011;22748;8.426;99.512;2023-09-30T04:55:38;10.70;;;8.00;;
36797;SDS011;22748;8.426;99.512;2023-09-30T04:58:21;12.52;;;8.38;;
36797;SDS011;22748;8.426;99.512;2023-09-30T05:00:53;9.13;;;8.02;;
36797;SDS011;22748;8.426;99.512;2023-09-30T05:03:26;11.27;;;8.57;;
36797;SDS011;22748;8.426;99.512;2023-09-30T05:06:00;15.35;;;9.25;;
36797;SDS011;22748;8.426;99.512;2023-09-30T05:08:36;10.93;;;7.60;;
36797;SDS011;22748;8.426;99.512;2023-09-30T05:11:07;11.45;;;8.25;;
36797;SDS011;22748;8.426;99.512;2023-09-30T05:13:52;9.15;;;7.60;;
36797;SDS011;22748;8.426;99.512;2023-09-30T05:16:27;10.77;;;9.30;;
36797;SDS011;22748;8.426;99.512;2023-09-30T05:18:58;17.45;;;13.48;;
36797;SDS011;22748;8.426;99.512;2023-09-30T05:21:35;11.50;;;9.55;;
36797;SDS011;22748;8.426;99.512;2023-09-30T05:24:11;10.15;;;8.80;;
36797;SDS011;22748;8.426;99.512;2023-09-30T05:26:43;13.60;;;9.13;;
36797;SDS011;22748;8.426;99.512;2023-09-30T05:29:16;12.60;;;9.35;;
36797;SDS011;22748;8.426;99.512;2023-09-30T05:31:46;10.27;;;8.68;;
36797;SDS011;22748;8.426;99.512;2023-09-30T05:34:17;9.47;;;8.20;;
36797;SDS011;22748;8.426;99.512;2023-09-30T05:36:47;9.75;;;8.75;;
36797;SDS011;22748;8.426;99.512;2023-09-30T05:39:19;12.57;;;8.25;;
36797;SDS011;22748;8.426;99.512;2023-09-30T05:41:49;12.77;;;9.05;;
36797;SDS011;22748;8.426;99.512;2023-09-30T05:44:28;11.80;;;9.13;;
36797;SDS011;22748;8.426;99.512;2023-09-30T05:47:24;9.60;;;8.63;;
36797;SDS011;22748;8.426;99.512;2023-09-30T05:49:55;9.35;;;8.52;;
36797;SDS011;22748;8.426;99.512;2023-09-30T05:52:35;10.35;;;7.80;;
36797;SDS011;22748;8.426;99.512;2023-09-30T05:55:06;8.40;;;7.47;;
36797;SDS011;22748;8.426;99.512;2023-09-30T05:57:37;9.90;;;7.78;;
36797;SDS011;22748;8.426;99.512;2023-09-30T06:00:12;8.90;;;7.60;;
36797;SDS011;22748;8.426;99.512;2023-09-30T06:02:55;15.10;;;8.35;;
36797;SDS011;22748;8.426;99.512;2023-09-30T06:05:26;9.20;;;7.80;;
36797;SDS011;22748;8.426;99.512;2023-09-30T06:07:59;9.90;;;8.90;;
36797;SDS011;22748;8.426;99.512;2023-09-30T06:10:37;11.63;;;9.20;;
36797;SDS011;22748;8.426;99.512;2023-09-30T06:13:14;10.05;;;8.70;;
36797;SDS011;22748;8.426;99.512;2023-09-30T06:18:41;10.35;;;8.75;;
36797;SDS011;22748;8.426;99.512;2023-09-30T06:21:18;13.45;;;9.75;;
36797;SDS011;22748;8.426;99.512;2023-09-30T06:23:49;10.23;;;8.95;;
36797;SDS011;22748;8.426;99.512;2023-09-30T06:26:21;12.27;;;7.82;;
36797;SDS011;22748;8.426;99.512;2023-09-30T06:28:55;8.88;;;7.97;;
36797;SDS011;22748;8.426;99.512;2023-09-30T06:31:30;10.27;;;8.52;;
36797;SDS011;22748;8.426;99.512;2023-09-30T06:34:01;11.07;;;8.98;;
36797;SDS011;22748;8.426;99.512;2023-09-30T06:41:35;9.05;;;8.15;;
36797;SDS011;22748;8.426;99.512;2023-09-30T06:44:15;8.60;;;7.70;;
36797;SDS011;22748;8.426;99.512;2023-09-30T06:46:48;9.63;;;7.93;;
36797;SDS011;22748;8.426;99.512;2023-09-30T06:49:21;10.48;;;8.10;;
36797;SDS011;22748;8.426;99.512;2023-09-30T06:51:52;8.35;;;7.45;;
36797;SDS011;22748;8.426;99.512;2023-09-30T06:54:23;9.13;;;7.13;;
36797;SDS011;22748;8.426;99.512;2023-09-30T06:56:53;7.85;;;7.13;;
36797;SDS011;22748;8.426;99.512;2023-09-30T06:59:27;7.50;;;6.80;;
36797;SDS011;22748;8.426;99.512;2023-09-30T07:01:59;10.40;;;7.88;;
36797;SDS011;22748;8.426;99.512;2023-09-30T07:04:29;7.22;;;6.22;;
36797;SDS011;22748;8.426;99.512;2023-09-30T07:09:29;14.75;;;7.28;;
36797;SDS011;22748;8.426;99.512;2023-09-30T07:12:00;7.80;;;7.03;;
36797;SDS011;22748;8.426;99.512;2023-09-30T07:14:33;7.38;;;6.65;;
36797;SDS011;22748;8.426;99.512;2023-09-30T07:17:14;8.30;;;5.95;;
36797;SDS011;22748;8.426;99.512;2023-09-30T07:19:45;8.68;;;6.32;;
36797;SDS011;22748;8.426;99.512;2023-09-30T07:22:18;9.80;;;6.20;;
36797;SDS011;22748;8.426;99.512;2023-09-30T07:24:48;12.37;;;6.97;;
36797;SDS011;22748;8.426;99.512;2023-09-30T07:27:20;10.77;;;7.03;;
36797;SDS011;22748;8.426;99.512;2023-09-30T07:29:52;9.05;;;6.57;;
36797;SDS011;22748;8.426;99.512;2023-09-30T07:32:24;6.63;;;6.03;;
36797;SDS011;22748;8.426;99.512;2023-09-30T07:34:54;8.65;;;6.38;;
36797;SDS011;22748;8.426;99.512;2023-09-30T07:37:24;8.23;;;5.97;;
36797;SDS011;22748;8.426;99.512;2023-09-30T07:39:59;7.93;;;6.63;;
36797;SDS011;22748;8.426;99.512;2023-09-30T07:42:34;6.43;;;5.72;;
36797;SDS011;22748;8.426;99.512;2023-09-30T07:45:04;6.80;;;5.35;;
36797;SDS011;22748;8.426;99.512;2023-09-30T07:47:36;6.75;;;6.13;;
36797;SDS011;22748;8.426;99.512;2023-09-30T07:50:07;7.82;;;5.72;;
36797;SDS011;22748;8.426;99.512;2023-09-30T07:52:38;9.32;;;6.97;;
36797;SDS011;22748;8.426;99.512;2023-09-30T07:55:10;6.75;;;6.00;;
36797;SDS011;22748;8.426;99.512;2023-09-30T07:57:41;6.63;;;5.97;;
36797;SDS011;22748;8.426;99.512;2023-09-30T08:00:13;6.82;;;5.30;;
36797;SDS011;22748;8.426;99.512;2023-09-30T08:02:47;8.25;;;5.90;;
36797;SDS011;22748;8.426;99.512;2023-09-30T08:05:18;7.30;;;6.60;;
36797;SDS011;22748;8.426;99.512;2023-09-30T08:07:49;7.45;;;5.50;;
36797;SDS011;22748;8.426;99.512;2023-09-30T08:10:21;6.53;;;5.65;;
36797;SDS011;22748;8.426;99.512;2023-09-30T08:12:52;8.82;;;5.70;;
36797;SDS011;22748;8.426;99.512;2023-09-30T08:15:25;6.57;;;5.50;;
36797;SDS011;22748;8.426;99.512;2023-09-30T08:17:58;6.15;;;5.15;;
36797;SDS011;22748;8.426;99.512;2023-09-30T08:20:31;8.43;;;6.05;;
36797;SDS011;22748;8.426;99.512;2023-09-30T08:23:02;5.60;;;4.82;;
36797;SDS011;22748;8.426;99.512;2023-09-30T08:25:33;6.70;;;5.03;;
36797;SDS011;22748;8.426;99.512;2023-09-30T08:28:04;10.45;;;6.68;;
36797;SDS011;22748;8.426;99.512;2023-09-30T08:30:36;9.27;;;6.45;;
36797;SDS011;22748;8.426;99.512;2023-09-30T08:33:09;6.85;;;5.63;;
36797;SDS011;22748;8.426;99.512;2023-09-30T08:35:41;7.65;;;5.70;;
36797;SDS011;22748;8.426;99.512;2023-09-30T08:38:12;6.57;;;5.15;;
36797;SDS011;22748;8.426;99.512;2023-09-30T08:43:15;5.80;;;5.10;;
36797;SDS011;22748;8.426;99.512;2023-09-30T08:45:54;5.95;;;5.35;;
36797;SDS011;22748;8.426;99.512;2023-09-30T08:48:28;6.28;;;5.68;;
36797;SDS011;22748;8.426;99.512;2023-09-30T08:51:00;7.15;;;5.32;;
36797;SDS011;22748;8.426;99.512;2023-09-30T08:53:31;5.60;;;5.07;;
36797;SDS011;22748;8.426;99.512;2023-09-30T08:56:04;8.10;;;5.55;;
36797;SDS011;22748;8.426;99.512;2023-09-30T08:58:37;10.95;;;6.32;;
36797;SDS011;22748;8.426;99.512;2023-09-30T09:01:14;9.43;;;6.13;;
36797;SDS011;22748;8.426;99.512;2023-09-30T09:03:49;8.30;;;5.72;;
36797;SDS011;22748;8.426;99.512;2023-09-30T09:06:20;6.28;;;5.40;;
36797;SDS011;22748;8.426;99.512;2023-09-30T09:08:51;7.47;;;5.95;;
36797;SDS011;22748;8.426;99.512;2023-09-30T09:11:22;13.77;;;12.32;;
36797;SDS011;22748;8.426;99.512;2023-09-30T09:13:53;11.32;;;8.70;;
36797;SDS011;22748;8.426;99.512;2023-09-30T09:16:25;16.90;;;15.05;;
36797;SDS011;22748;8.426;99.512;2023-09-30T09:18:58;10.05;;;8.88;;
36797;SDS011;22748;8.426;99.512;2023-09-30T09:21:31;15.88;;;14.18;;
36797;SDS011;22748;8.426;99.512;2023-09-30T09:24:02;13.45;;;11.20;;
36797;SDS011;22748;8.426;99.512;2023-09-30T09:26:33;10.68;;;9.43;;
36797;SDS011;22748;8.426;99.512;2023-09-30T09:29:08;10.15;;;8.85;;
36797;SDS011;22748;8.426;99.512;2023-09-30T09:31:43;8.15;;;7.28;;
36797;SDS011;22748;8.426;99.512;2023-09-30T09:34:19;10.63;;;7.80;;
36797;SDS011;22748;8.426;99.512;2023-09-30T09:36:51;13.52;;;11.38;;
36797;SDS011;22748;8.426;99.512;2023-09-30T09:39:29;12.35;;;11.05;;
36797;SDS011;22748;8.426;99.512;2023-09-30T09:42:06;7.57;;;6.43;;
36797;SDS011;22748;8.426;99.512;2023-09-30T09:44:41;8.88;;;6.78;;
36797;SDS011;22748;8.426;99.512;2023-09-30T09:47:17;9.02;;;7.25;;
36797;SDS011;22748;8.426;99.512;2023-09-30T09:49:52;22.17;;;8.23;;
36797;SDS011;22748;8.426;99.512;2023-09-30T09:52:23;28.13;;;18.70;;
36797;SDS011;22748;8.426;99.512;2023-09-30T09:54:54;73.47;;;54.35;;
36797;SDS011;22748;8.426;99.512;2023-09-30T09:57:28;79.72;;;57.08;;
36797;SDS011;22748;8.426;99.512;2023-09-30T10:00:00;46.83;;;34.58;;
36797;SDS011;22748;8.426;99.512;2023-09-30T10:02:38;21.92;;;17.15;;
36797;SDS011;22748;8.426;99.512;2023-09-30T10:05:11;12.43;;;9.55;;
36797;SDS011;22748;8.426;99.512;2023-09-30T10:07:44;14.50;;;10.77;;
36797;SDS011;22748;8.426;99.512;2023-09-30T10:10:28;41.53;;;29.65;;
36797;SDS011;22748;8.426;99.512;2023-09-30T10:13:05;21.48;;;13.98;;
36797;SDS011;22748;8.426;99.512;2023-09-30T10:15:39;93.35;;;69.97;;
36797;SDS011;22748;8.426;99.512;2023-09-30T10:20:40;54.92;;;37.38;;
36797;SDS011;22748;8.426;99.512;2023-09-30T10:23:28;122.15;;;91.50;;
36797;SDS011;22748;8.426;99.512;2023-09-30T10:28:46;73.00;;;55.17;;
36797;SDS011;22748;8.426;99.512;2023-09-30T10:31:17;24.98;;;19.92;;
36797;SDS011;22748;8.426;99.512;2023-09-30T10:36:56;52.53;;;37.15;;
36797;SDS011;22748;8.426;99.512;2023-09-30T10:42:45;60.50;;;46.45;;
36797;SDS011;22748;8.426;99.512;2023-09-30T10:48:40;29.30;;;22.70;;
36797;SDS011;22748;8.426;99.512;2023-09-30T10:51:15;26.00;;;19.65;;
36797;SDS011;22748;8.426;99.512;2023-09-30T10:53:51;30.25;;;24.75;;
36797;SDS011;22748;8.426;99.512;2023-09-30T10:56:23;73.70;;;52.60;;
36797;SDS011;22748;8.426;99.512;2023-09-30T10:59:00;58.35;;;43.00;;
36797;SDS011;22748;8.426;99.512;2023-09-30T11:01:34;63.95;;;44.67;;
36797;SDS011;22748;8.426;99.512;2023-09-30T11:06:39;80.38;;;56.00;;
36797;SDS011;22748;8.426;99.512;2023-09-30T11:09:15;74.50;;;52.00;;
36797;SDS011;22748;8.426;99.512;2023-09-30T11:11:45;60.88;;;44.00;;
36797;SDS011;22748;8.426;99.512;2023-09-30T11:14:18;42.90;;;32.78;;
36797;SDS011;22748;8.426;99.512;2023-09-30T11:16:49;62.88;;;42.65;;
36797;SDS011;22748;8.426;99.512;2023-09-30T11:21:52;106.85;;;69.78;;
36797;SDS011;22748;8.426;99.512;2023-09-30T11:24:27;86.00;;;55.22;;
36797;SDS011;22748;8.426;99.512;2023-09-30T11:26:59;88.88;;;56.42;;
36797;SDS011;22748;8.426;99.512;2023-09-30T11:29:31;133.30;;;76.88;;
36797;SDS011;22748;8.426;99.512;2023-09-30T11:32:02;86.85;;;53.80;;
36797;SDS011;22748;8.426;99.512;2023-09-30T11:34:34;64.80;;;40.80;;
36797;SDS011;22748;8.426;99.512;2023-09-30T11:37:09;66.65;;;39.53;;
36797;SDS011;22748;8.426;99.512;2023-09-30T11:39:43;58.88;;;34.00;;
36797;SDS011;22748;8.426;99.512;2023-09-30T11:42:15;57.83;;;33.53;;
36797;SDS011;22748;8.426;99.512;2023-09-30T11:44:48;69.35;;;39.60;;
36797;SDS011;22748;8.426;99.512;2023-09-30T11:47:28;74.30;;;39.30;;
36797;SDS011;22748;8.426;99.512;2023-09-30T11:50:00;62.75;;;35.58;;
36797;SDS011;22748;8.426;99.512;2023-09-30T11:52:31;59.67;;;36.47;;
36797;SDS011;22748;8.426;99.512;2023-09-30T11:55:05;61.88;;;36.95;;
36797;SDS011;22748;8.426;99.512;2023-09-30T11:57:38;57.45;;;38.08;;
36797;SDS011;22748;8.426;99.512;2023-09-30T12:00:10;59.53;;;37.83;;
36797;SDS011;22748;8.426;99.512;2023-09-30T12:02:44;52.83;;;34.75;;
36797;SDS011;22748;8.426;99.512;2023-09-30T12:05:14;55.47;;;34.07;;
36797;SDS011;22748;8.426;99.512;2023-09-30T12:07:48;51.58;;;33.95;;
36797;SDS011;22748;8.426;99.512;2023-09-30T12:10:21;51.72;;;34.00;;
36797;SDS011;22748;8.426;99.512;2023-09-30T12:12:52;48.42;;;33.28;;
36797;SDS011;22748;8.426;99.512;2023-09-30T12:15:25;50.83;;;34.35;;
36797;SDS011;22748;8.426;99.512;2023-09-30T12:17:55;48.13;;;33.95;;
36797;SDS011;22748;8.426;99.512;2023-09-30T12:20:28;56.83;;;37.77;;
36797;SDS011;22748;8.426;99.512;2023-09-30T12:23:00;55.15;;;38.28;;
36797;SDS011;22748;8.426;99.512;2023-09-30T12:28:21;49.80;;;34.05;;
36797;SDS011;22748;8.426;99.512;2023-09-30T12:30:52;44.08;;;32.17;;
36797;SDS011;22748;8.426;99.512;2023-09-30T12:33:24;44.50;;;30.42;;
36797;SDS011;22748;8.426;99.512;2023-09-30T12:35:54;47.22;;;33.72;;
36797;SDS011;22748;8.426;99.512;2023-09-30T12:38:28;47.78;;;31.25;;
36797;SDS011;22748;8.426;99.512;2023-09-30T12:41:05;40.50;;;29.92;;
36797;SDS011;22748;8.426;99.512;2023-09-30T12:43:35;42.20;;;30.42;;
36797;SDS011;22748;8.426;99.512;2023-09-30T12:46:08;47.40;;;32.58;;
36797;SDS011;22748;8.426;99.512;2023-09-30T12:48:42;41.45;;;29.77;;
36797;SDS011;22748;8.426;99.512;2023-09-30T12:51:14;47.42;;;29.35;;
36797;SDS011;22748;8.426;99.512;2023-09-30T12:53:45;42.00;;;27.17;;
36797;SDS011;22748;8.426;99.512;2023-09-30T12:56:17;38.03;;;26.85;;
36797;SDS011;22748;8.426;99.512;2023-09-30T12:58:47;40.80;;;27.25;;
36797;SDS011;22748;8.426;99.512;2023-09-30T13:01:19;40.05;;;27.90;;
36797;SDS011;22748;8.426;99.512;2023-09-30T13:03:52;40.25;;;26.33;;
36797;SDS011;22748;8.426;99.512;2023-09-30T13:06:25;33.38;;;24.90;;
36797;SDS011;22748;8.426;99.512;2023-09-30T13:08:58;38.45;;;25.67;;
36797;SDS011;22748;8.426;99.512;2023-09-30T13:11:32;40.70;;;24.83;;
36797;SDS011;22748;8.426;99.512;2023-09-30T13:14:03;34.35;;;25.23;;
36797;SDS011;22748;8.426;99.512;2023-09-30T13:22:32;43.20;;;31.80;;
36797;SDS011;22748;8.426;99.512;2023-09-30T13:25:05;43.42;;;32.38;;
36797;SDS011;22748;8.426;99.512;2023-09-30T13:27:40;40.70;;;30.27;;
36797;SDS011;22748;8.426;99.512;2023-09-30T13:30:10;41.70;;;28.90;;
36797;SDS011;22748;8.426;99.512;2023-09-30T13:32:43;46.20;;;29.20;;
36797;SDS011;22748;8.426;99.512;2023-09-30T13:35:13;39.63;;;29.40;;
36797;SDS011;22748;8.426;99.512;2023-09-30T13:37:43;40.30;;;29.05;;
36797;SDS011;22748;8.426;99.512;2023-09-30T13:40:14;41.75;;;30.83;;
36797;SDS011;22748;8.426;99.512;2023-09-30T13:42:46;42.47;;;31.45;;
36797;SDS011;22748;8.426;99.512;2023-09-30T13:45:16;41.70;;;30.88;;
36797;SDS011;22748;8.426;99.512;2023-09-30T13:50:19;56.67;;;38.65;;
36797;SDS011;22748;8.426;99.512;2023-09-30T13:52:48;59.25;;;41.72;;
36797;SDS011;22748;8.426;99.512;2023-09-30T13:55:18;58.73;;;41.33;;
36797;SDS011;22748;8.426;99.512;2023-09-30T13:57:51;54.13;;;39.05;;
36797;SDS011;22748;8.426;99.512;2023-09-30T14:00:22;63.28;;;44.35;;
36797;SDS011;22748;8.426;99.512;2023-09-30T14:02:55;58.88;;;41.28;;
36797;SDS011;22748;8.426;99.512;2023-09-30T14:05:29;59.72;;;40.80;;
36797;SDS011;22748;8.426;99.512;2023-09-30T14:08:04;53.20;;;38.38;;
36797;SDS011;22748;8.426;99.512;2023-09-30T14:10:35;51.72;;;35.30;;
36797;SDS011;22748;8.426;99.512;2023-09-30T14:13:07;39.85;;;31.20;;
36797;SDS011;22748;8.426;99.512;2023-09-30T14:15:40;36.92;;;28.40;;
36797;SDS011;22748;8.426;99.512;2023-09-30T14:18:11;36.78;;;28.35;;
36797;SDS011;22748;8.426;99.512;2023-09-30T14:20:45;34.33;;;25.83;;
36797;SDS011;22748;8.426;99.512;2023-09-30T14:23:19;27.75;;;21.85;;
36797;SDS011;22748;8.426;99.512;2023-09-30T14:25:54;22.13;;;17.98;;
36797;SDS011;22748;8.426;99.512;2023-09-30T14:28:27;22.70;;;17.00;;
36797;SDS011;22748;8.426;99.512;2023-09-30T14:30:58;22.70;;;16.35;;
36797;SDS011;22748;8.426;99.512;2023-09-30T14:33:32;24.33;;;18.75;;
36797;SDS011;22748;8.426;99.512;2023-09-30T14:36:03;28.95;;;21.40;;
36797;SDS011;22748;8.426;99.512;2023-09-30T14:38:33;31.15;;;22.75;;
36797;SDS011;22748;8.426;99.512;2023-09-30T14:41:06;30.95;;;22.70;;
36797;SDS011;22748;8.426;99.512;2023-09-30T14:43:39;32.88;;;23.85;;
36797;SDS011;22748;8.426;99.512;2023-09-30T14:46:10;33.00;;;24.48;;
36797;SDS011;22748;8.426;99.512;2023-09-30T14:48:40;29.98;;;24.27;;
36797;SDS011;22748;8.426;99.512;2023-09-30T14:51:11;29.55;;;24.30;;
36797;SDS011;22748;8.426;99.512;2023-09-30T14:53:42;28.67;;;24.50;;
36797;SDS011;22748;8.426;99.512;2023-09-30T14:56:17;32.80;;;25.13;;
36797;SDS011;22748;8.426;99.512;2023-09-30T14:58:49;29.23;;;23.15;;
36797;SDS011;22748;8.426;99.512;2023-09-30T15:01:20;28.70;;;21.80;;
36797;SDS011;22748;8.426;99.512;2023-09-30T15:03:51;30.40;;;22.07;;
36797;SDS011;22748;8.426;99.512;2023-09-30T15:06:21;28.63;;;23.15;;
36797;SDS011;22748;8.426;99.512;2023-09-30T15:08:51;28.30;;;23.02;;
36797;SDS011;22748;8.426;99.512;2023-09-30T15:11:24;27.90;;;20.45;;
36797;SDS011;22748;8.426;99.512;2023-09-30T15:13:56;26.08;;;19.58;;
36797;SDS011;22748;8.426;99.512;2023-09-30T15:16:27;22.45;;;17.92;;
36797;SDS011;22748;8.426;99.512;2023-09-30T15:19:01;21.70;;;17.33;;
36797;SDS011;22748;8.426;99.512;2023-09-30T15:21:34;20.00;;;17.58;;
36797;SDS011;22748;8.426;99.512;2023-09-30T15:24:05;23.02;;;17.55;;
36797;SDS011;22748;8.426;99.512;2023-09-30T15:26:38;20.95;;;16.92;;
36797;SDS011;22748;8.426;99.512;2023-09-30T15:29:10;21.00;;;17.10;;
36797;SDS011;22748;8.426;99.512;2023-09-30T15:31:41;21.42;;;16.60;;
36797;SDS011;22748;8.426;99.512;2023-09-30T15:34:13;21.15;;;15.70;;
36797;SDS011;22748;8.426;99.512;2023-09-30T15:36:43;20.30;;;15.50;;
36797;SDS011;22748;8.426;99.512;2023-09-30T15:39:13;19.52;;;15.20;;
36797;SDS011;22748;8.426;99.512;2023-09-30T15:41:43;19.90;;;15.05;;
36797;SDS011;22748;8.426;99.512;2023-09-30T15:44:16;21.38;;;15.30;;
36797;SDS011;22748;8.426;99.512;2023-09-30T15:46:46;19.92;;;15.45;;
36797;SDS011;22748;8.426;99.512;2023-09-30T15:49:17;19.98;;;15.02;;
36797;SDS011;22748;8.426;99.512;2023-09-30T15:51:47;19.52;;;16.25;;
36797;SDS011;22748;8.426;99.512;2023-09-30T15:54:17;24.60;;;17.58;;
36797;SDS011;22748;8.426;99.512;2023-09-30T15:56:48;24.48;;;17.33;;
36797;SDS011;22748;8.426;99.512;2023-09-30T16:01:51;24.88;;;20.30;;
36797;SDS011;22748;8.426;99.512;2023-09-30T16:04:22;24.70;;;17.93;;
36797;SDS011;22748;8.426;99.512;2023-09-30T16:06:52;23.47;;;18.20;;